Time;durP1;ratioP1;P1;durP2;ratioP2;P2;SDS_P1;SDS_P2;PMS_P1;PMS_P2;Temp;Humidity;BMP_temperature;BMP_pressure;BME280_temperature;BME280_humidity;BME280_pressure;Samples;Min_cycle;Max_cycle;Signal;HPM_P1;HPM_P2
2022/12/19 00:01:17;;;;;;;32.90;20.33;;;1.80;99.90;;;;;;5042069;28;20040;-40
2022/12/19 00:03:52;;;;;;;36.00;20.23;;;1.80;99.90;;;;;;5041651;28;20025;-40
2022/12/19 00:06:19;;;;;;;34.33;20.98;;;1.80;99.90;;;;;;5041138;28;20033;-40
2022/12/19 00:08:46;;;;;;;37.90;21.25;;;1.80;99.90;;;;;;5041660;28;20028;-37
2022/12/19 00:11:12;;;;;;;33.53;19.90;;;1.80;99.90;;;;;;5041053;28;20453;-40
2022/12/19 00:13:39;;;;;;;34.83;19.05;;;1.80;99.90;;;;;;5040466;28;20056;-41
2022/12/19 00:16:09;;;;;;;32.75;20.08;;;1.80;99.90;;;;;;5041387;28;20039;-40
2022/12/19 00:18:35;;;;;;;29.73;17.80;;;1.80;99.90;;;;;;5040633;28;20021;-39
2022/12/19 00:21:22;;;;;;;31.17;18.63;;;1.90;99.90;;;;;;5041069;28;20024;-38
2022/12/19 00:23:51;;;;;;;30.27;17.20;;;1.90;99.90;;;;;;5040893;28;20036;-40
2022/12/19 00:26:28;;;;;;;36.15;19.40;;;1.90;99.90;;;;;;5040875;28;20391;-40
2022/12/19 00:28:57;;;;;;;33.28;19.38;;;1.90;99.90;;;;;;5041003;28;20071;-40
2022/12/19 00:31:23;;;;;;;35.53;19.88;;;1.90;99.90;;;;;;5041108;28;20025;-36
2022/12/19 00:33:49;;;;;;;35.65;21.42;;;1.80;99.90;;;;;;5040845;28;20052;-40
2022/12/19 00:36:21;;;;;;;35.22;20.42;;;1.80;99.90;;;;;;5041593;28;20040;-41
2022/12/19 00:38:47;;;;;;;36.17;21.30;;;1.80;99.90;;;;;;5041844;28;20032;-39
2022/12/19 00:41:15;;;;;;;35.67;21.48;;;1.80;99.90;;;;;;5040245;28;20493;-40
2022/12/19 00:43:42;;;;;;;34.33;20.92;;;1.90;99.90;;;;;;5041490;28;20024;-37
2022/12/19 00:46:10;;;;;;;36.03;21.40;;;1.80;99.90;;;;;;5040310;28;20033;-39
2022/12/19 00:48:36;;;;;;;36.50;21.75;;;1.90;99.90;;;;;;5041050;28;20839;-38
2022/12/19 00:51:04;;;;;;;35.95;21.73;;;1.80;99.90;;;;;;5040628;28;20037;-39
2022/12/19 00:53:30;;;;;;;35.90;20.80;;;1.80;99.90;;;;;;5041079;28;20025;-36
2022/12/19 00:55:59;;;;;;;40.92;23.40;;;1.80;99.90;;;;;;5040137;28;20547;-40
2022/12/19 00:58:26;;;;;;;38.88;21.42;;;1.80;99.90;;;;;;5040617;28;20029;-38
2022/12/19 01:00:51;;;;;;;35.15;21.17;;;1.80;99.90;;;;;;5039746;28;20382;-36
2022/12/19 01:03:17;;;;;;;35.78;21.33;;;1.80;99.90;;;;;;5041110;28;20516;-39
2022/12/19 01:05:42;;;;;;;42.58;22.98;;;1.90;99.90;;;;;;5040716;28;20191;-39
2022/12/19 01:08:08;;;;;;;34.47;19.92;;;1.90;99.90;;;;;;5040336;28;20574;-39
2022/12/19 01:10:33;;;;;;;38.17;22.60;;;1.90;99.90;;;;;;5040140;28;20401;-39
2022/12/19 01:12:59;;;;;;;34.67;22.55;;;1.90;99.90;;;;;;5040995;28;20028;-40
2022/12/19 01:15:24;;;;;;;34.70;21.33;;;1.80;99.90;;;;;;5040758;28;20112;-36
2022/12/19 01:17:50;;;;;;;37.28;21.85;;;1.90;99.90;;;;;;5040940;28;20067;-38
2022/12/19 01:20:19;;;;;;;38.50;22.75;;;1.90;99.90;;;;;;5040790;28;20021;-39
2022/12/19 01:22:46;;;;;;;35.58;21.08;;;1.90;99.90;;;;;;5042927;28;20047;-39
2022/12/19 01:25:13;;;;;;;33.05;19.98;;;1.90;99.90;;;;;;5045405;28;20029;-38
2022/12/19 01:27:39;;;;;;;28.15;18.00;;;1.90;99.90;;;;;;5044358;28;20029;-39
2022/12/19 01:30:06;;;;;;;31.25;19.08;;;2.00;99.90;;;;;;5043830;28;20021;-40
2022/12/19 01:32:35;;;;;;;29.80;18.42;;;2.00;99.90;;;;;;5044922;28;20407;-39
2022/12/19 01:35:01;;;;;;;30.45;18.63;;;2.00;99.90;;;;;;5045198;28;20032;-40
2022/12/19 01:37:26;;;;;;;27.95;17.33;;;2.00;99.90;;;;;;5044657;28;20029;-38
2022/12/19 01:39:52;;;;;;;30.15;18.13;;;2.10;99.90;;;;;;5044399;28;20106;-40
2022/12/19 01:42:20;;;;;;;28.67;17.35;;;2.10;99.90;;;;;;5043673;28;20051;-40
2022/12/19 01:45:07;;;;;;;31.98;19.63;;;2.10;99.90;;;;;;5044579;28;20025;-38
2022/12/19 01:47:42;;;;;;;30.98;17.95;;;2.10;99.90;;;;;;5044497;28;20056;-40
2022/12/19 01:50:12;;;;;;;30.95;17.73;;;2.10;99.90;;;;;;5044118;28;20025;-39
2022/12/19 01:52:38;;;;;;;26.20;15.98;;;2.10;99.90;;;;;;5043994;28;20025;-40
2022/12/19 01:55:04;;;;;;;26.90;16.40;;;2.20;99.90;;;;;;5044348;28;20040;-40
2022/12/19 01:57:29;;;;;;;25.27;16.23;;;2.20;99.90;;;;;;5043551;28;20528;-37
2022/12/19 01:59:59;;;;;;;30.20;18.08;;;2.20;99.90;;;;;;5044563;28;20029;-39
2022/12/19 02:02:32;;;;;;;29.35;17.17;;;2.20;99.90;;;;;;5044424;28;20040;-35
2022/12/19 02:05:00;;;;;;;27.75;17.45;;;2.30;99.90;;;;;;5042830;28;20031;-35
2022/12/19 02:07:27;;;;;;;28.88;18.27;;;2.30;99.90;;;;;;5044254;28;20696;-40
2022/12/19 02:09:57;;;;;;;32.17;19.63;;;2.30;99.90;;;;;;5044308;28;20029;-39
2022/12/19 02:12:28;;;;;;;34.88;20.77;;;2.30;99.90;;;;;;5043542;28;20376;-40
2022/12/19 02:14:56;;;;;;;29.38;18.73;;;2.40;99.90;;;;;;5043377;28;20598;-39
2022/12/19 02:17:26;;;;;;;33.70;19.75;;;2.40;99.90;;;;;;5043924;28;20028;-40
2022/12/19 02:20:06;;;;;;;27.90;17.38;;;2.40;99.90;;;;;;5042667;28;20028;-39
2022/12/19 02:23:09;;;;;;;30.15;18.38;;;2.40;99.90;;;;;;5043700;28;20103;-39
2022/12/19 02:26:08;;;;;;;32.22;18.85;;;2.40;99.90;;;;;;5041363;28;20028;-41
2022/12/19 02:28:51;;;;;;;30.48;18.10;;;2.40;99.90;;;;;;5042751;28;20224;-39
2022/12/19 02:31:26;;;;;;;30.13;17.77;;;2.40;99.90;;;;;;5043504;28;20135;-40
2022/12/19 02:34:13;;;;;;;26.95;17.30;;;2.50;99.90;;;;;;5041832;28;20044;-40
2022/12/19 02:36:40;;;;;;;28.73;15.73;;;2.50;99.90;;;;;;5042857;28;20025;-35
2022/12/19 02:39:21;;;;;;;23.77;15.15;;;2.50;99.90;;;;;;5040967;28;20028;-39
2022/12/19 02:41:52;;;;;;;28.25;18.05;;;2.60;99.90;;;;;;5043532;28;20049;-38
2022/12/19 02:44:48;;;;;;;27.65;16.67;;;2.70;99.90;;;;;;5042519;28;20943;-37
2022/12/19 02:47:15;;;;;;;28.13;18.17;;;2.70;99.90;;;;;;5041424;28;20053;-37
2022/12/19 02:49:40;;;;;;;29.88;18.40;;;2.70;99.90;;;;;;5042784;28;20049;-37
2022/12/19 02:52:10;;;;;;;27.48;17.17;;;2.80;99.90;;;;;;5042787;28;20113;-40
2022/12/19 02:54:37;;;;;;;30.20;18.92;;;2.80;99.90;;;;;;5042404;28;20048;-39
2022/12/19 02:57:15;;;;;;;27.17;17.85;;;2.90;99.90;;;;;;5042886;28;20564;-38
2022/12/19 03:00:13;;;;;;;29.17;18.77;;;2.90;99.90;;;;;;5042480;28;20036;-40
2022/12/19 03:02:46;;;;;;;29.15;18.42;;;3.00;99.90;;;;;;5041853;28;20185;-40
2022/12/19 03:05:22;;;;;;;32.80;19.55;;;3.00;99.90;;;;;;5042730;28;20106;-40
2022/12/19 03:08:01;;;;;;;28.27;18.25;;;3.10;99.90;;;;;;5041932;28;20090;-40
2022/12/19 03:10:48;;;;;;;27.45;17.42;;;3.10;99.90;;;;;;5042812;28;20025;-39
2022/12/19 03:13:45;;;;;;;26.58;17.83;;;3.10;99.90;;;;;;5042563;28;20052;-39
2022/12/19 03:16:12;;;;;;;25.65;16.55;;;3.10;99.90;;;;;;5038908;28;20037;-38
2022/12/19 03:18:38;;;;;;;27.77;17.10;;;3.10;99.90;;;;;;5042499;28;20040;-40
2022/12/19 03:21:07;;;;;;;27.20;17.52;;;3.10;99.90;;;;;;5042272;28;20028;-40
2022/12/19 03:23:33;;;;;;;25.20;15.80;;;3.10;99.90;;;;;;5042290;28;20086;-40
2022/12/19 03:26:09;;;;;;;29.00;16.85;;;3.10;99.90;;;;;;5042226;28;20068;-38
2022/12/19 03:28:55;;;;;;;28.92;16.92;;;3.10;99.90;;;;;;5041760;28;20076;-40
2022/12/19 03:31:32;;;;;;;26.55;15.85;;;3.10;99.90;;;;;;5042257;28;20605;-37
2022/12/19 03:34:05;;;;;;;24.17;15.35;;;3.20;99.90;;;;;;5042438;28;20056;-40
2022/12/19 03:36:41;;;;;;;25.15;15.70;;;3.20;99.90;;;;;;5042151;28;20033;-40
2022/12/19 03:39:09;;;;;;;24.20;15.10;;;3.20;99.90;;;;;;5042994;28;20067;-38
2022/12/19 03:44:27;;;;;;;24.38;14.77;;;3.30;99.90;;;;;;5041726;28;20118;-41
2022/12/19 03:47:17;;;;;;;21.73;14.20;;;3.30;99.90;;;;;;5041423;28;20052;-41
2022/12/19 03:49:44;;;;;;;20.10;12.98;;;3.30;99.90;;;;;;5041250;28;20025;-40
2022/12/19 03:52:40;;;;;;;23.20;15.13;;;3.40;99.90;;;;;;5042166;28;20135;-40
2022/12/19 03:55:21;;;;;;;26.83;16.13;;;3.40;99.90;;;;;;5021177;28;20094;-39
2022/12/19 03:58:04;;;;;;;23.98;15.55;;;3.40;99.90;;;;;;5038123;28;20017;-38
2022/12/19 04:00:32;;;;;;;27.38;16.00;;;3.50;99.90;;;;;;5042375;28;20472;-40
2022/12/19 04:02:59;;;;;;;24.90;15.75;;;3.50;99.90;;;;;;5041463;28;20049;-39
2022/12/19 04:05:27;;;;;;;23.58;15.05;;;3.50;99.90;;;;;;5041163;28;20043;-40
2022/12/19 04:07:57;;;;;;;21.23;14.13;;;3.60;99.90;;;;;;5041113;28;20559;-38
2022/12/19 04:10:25;;;;;;;23.63;14.60;;;3.60;99.90;;;;;;5042475;28;20025;-40
2022/12/19 04:13:04;;;;;;;21.05;13.73;;;3.70;99.90;;;;;;5041562;28;20115;-39
2022/12/19 04:16:05;;;;;;;21.27;13.70;;;3.70;99.90;;;;;;5041976;28;20033;-40
2022/12/19 04:18:33;;;;;;;19.48;13.23;;;3.70;99.90;;;;;;5032319;28;20072;-39
2022/12/19 04:21:21;;;;;;;23.13;14.18;;;3.70;99.90;;;;;;5041908;28;20050;-38
2022/12/19 04:24:03;;;;;;;20.83;14.13;;;3.70;99.90;;;;;;5041092;28;20503;-38
2022/12/19 04:26:31;;;;;;;21.73;13.80;;;3.80;99.90;;;;;;5041740;28;20070;-40
2022/12/19 04:29:01;;;;;;;22.30;13.82;;;3.80;99.90;;;;;;5040970;28;20437;-34
2022/12/19 04:31:29;;;;;;;20.80;14.25;;;3.80;99.90;;;;;;5041550;28;20021;-40
2022/12/19 04:33:55;;;;;;;20.42;14.02;;;3.90;99.90;;;;;;5040545;28;20049;-40
2022/12/19 04:36:21;;;;;;;19.80;12.68;;;4.00;99.90;;;;;;5041550;28;20040;-41
2022/12/19 04:38:47;;;;;;;19.50;13.48;;;4.00;99.90;;;;;;5040716;28;20051;-40
2022/12/19 04:41:13;;;;;;;17.75;12.52;;;4.00;99.90;;;;;;5041004;28;20033;-41
2022/12/19 04:43:38;;;;;;;19.60;13.00;;;4.10;99.90;;;;;;5040577;28;20036;-39
2022/12/19 04:46:04;;;;;;;17.75;12.10;;;4.10;99.90;;;;;;5040249;28;20061;-39
2022/12/19 04:48:29;;;;;;;19.27;12.70;;;4.20;99.90;;;;;;5040428;28;20067;-40
2022/12/19 04:50:55;;;;;;;19.63;12.77;;;4.20;99.90;;;;;;5040554;28;20124;-40
2022/12/19 04:53:21;;;;;;;15.95;10.98;;;4.30;99.90;;;;;;5040367;28;20035;-39
2022/12/19 04:55:49;;;;;;;17.05;11.38;;;4.30;99.90;;;;;;5041216;28;20068;-41
2022/12/19 04:58:15;;;;;;;17.17;12.52;;;4.30;99.90;;;;;;5041559;28;20021;-38
2022/12/19 05:00:40;;;;;;;17.75;11.45;;;4.40;99.90;;;;;;5040319;28;20031;-38
2022/12/19 05:03:06;;;;;;;16.23;10.82;;;4.40;99.90;;;;;;5040957;28;20087;-38
2022/12/19 05:05:31;;;;;;;17.83;12.20;;;4.40;99.90;;;;;;5041582;28;20134;-39
2022/12/19 05:07:57;;;;;;;17.38;12.20;;;4.40;99.90;;;;;;5040521;28;20128;-38
2022/12/19 05:10:22;;;;;;;17.20;12.35;;;4.50;99.90;;;;;;5040872;28;20151;-38
2022/12/19 05:12:48;;;;;;;18.13;12.82;;;4.50;99.90;;;;;;5041752;28;20107;-39
2022/12/19 05:15:16;;;;;;;17.83;11.25;;;4.50;99.90;;;;;;5040298;28;20029;-36
2022/12/19 05:17:42;;;;;;;19.63;13.27;;;4.60;99.90;;;;;;5040971;28;20555;-40
2022/12/19 05:20:08;;;;;;;17.13;11.23;;;4.50;99.90;;;;;;5041383;28;20029;-40
2022/12/19 05:22:34;;;;;;;17.15;12.00;;;4.60;99.90;;;;;;5039785;28;20080;-38
2022/12/19 05:24:59;;;;;;;16.85;11.95;;;4.60;99.90;;;;;;5040306;28;20116;-40
2022/12/19 05:27:25;;;;;;;17.30;11.82;;;4.60;99.90;;;;;;5041081;28;20028;-40
2022/12/19 05:29:50;;;;;;;16.75;12.07;;;4.60;99.90;;;;;;5039803;28;20113;-39
2022/12/19 05:32:16;;;;;;;17.75;12.38;;;4.70;99.90;;;;;;5040179;28;20033;-42
2022/12/19 05:34:41;;;;;;;15.35;10.82;;;4.70;99.90;;;;;;5040025;28;20108;-40
2022/12/19 05:37:07;;;;;;;16.70;12.27;;;4.70;99.90;;;;;;5039410;28;20035;-41
2022/12/19 05:39:33;;;;;;;17.48;12.52;;;4.70;99.90;;;;;;5040815;28;20048;-37
2022/12/19 05:41:59;;;;;;;17.00;12.07;;;4.70;99.90;;;;;;5040552;28;20033;-39
2022/12/19 05:44:24;;;;;;;17.13;11.85;;;4.70;99.90;;;;;;5040553;28;20029;-40
2022/12/19 05:46:50;;;;;;;14.32;11.13;;;4.70;99.90;;;;;;5039395;28;20029;-40
2022/12/19 05:49:15;;;;;;;15.70;10.82;;;4.70;99.90;;;;;;5039973;28;21004;-40
2022/12/19 05:51:41;;;;;;;15.07;10.85;;;4.80;99.90;;;;;;5039791;28;20442;-39
2022/12/19 05:54:07;;;;;;;17.13;11.48;;;4.80;99.90;;;;;;5040287;28;20033;-40
2022/12/19 05:56:32;;;;;;;14.98;10.70;;;4.80;99.90;;;;;;5039095;28;20029;-39
2022/12/19 05:58:58;;;;;;;12.75;9.88;;;4.80;99.90;;;;;;5039812;28;20086;-38
2022/12/19 06:01:25;;;;;;;14.02;10.32;;;4.80;99.90;;;;;;5039877;28;20052;-40
2022/12/19 06:03:52;;;;;;;12.00;9.10;;;4.90;99.90;;;;;;5039046;28;20033;-39
2022/12/19 06:06:24;;;;;;;13.70;9.85;;;4.90;99.90;;;;;;5039210;28;20033;-39
2022/12/19 06:08:57;;;;;;;13.43;9.98;;;4.90;99.90;;;;;;5043145;28;20025;-39
2022/12/19 06:11:24;;;;;;;10.32;8.00;;;5.00;99.90;;;;;;5043349;28;20041;-39
2022/12/19 06:13:50;;;;;;;12.32;9.13;;;5.00;99.90;;;;;;5044188;28;20119;-43
2022/12/19 06:16:17;;;;;;;11.15;8.48;;;5.00;99.90;;;;;;5043443;28;20024;-40
2022/12/19 06:18:44;;;;;;;12.00;8.88;;;5.00;99.90;;;;;;5042805;28;20036;-39
2022/12/19 06:21:13;;;;;;;11.52;9.13;;;5.10;99.90;;;;;;5042802;28;20511;-39
2022/12/19 06:23:39;;;;;;;11.77;9.18;;;5.10;99.90;;;;;;5044089;28;20032;-39
2022/12/19 06:26:06;;;;;;;9.65;7.95;;;5.10;99.90;;;;;;5042964;28;20029;-40
2022/12/19 06:28:32;;;;;;;11.80;8.90;;;5.10;99.90;;;;;;5043545;28;20033;-40
2022/12/19 06:30:59;;;;;;;9.90;7.95;;;5.20;99.90;;;;;;5043745;28;20060;-36
2022/12/19 06:33:26;;;;;;;10.88;8.57;;;5.20;99.90;;;;;;5041191;28;20106;-39
2022/12/19 06:36:04;;;;;;;11.55;9.02;;;5.20;99.90;;;;;;5044279;28;20136;-36
2022/12/19 06:38:30;;;;;;;11.18;8.80;;;5.30;99.90;;;;;;5043231;28;20098;-40
2022/12/19 06:43:40;;;;;;;11.63;8.57;;;5.40;99.90;;;;;;5043722;28;20544;-39
2022/12/19 06:46:07;;;;;;;10.43;8.32;;;5.40;99.90;;;;;;5040055;28;20630;-35
2022/12/19 06:48:33;;;;;;;9.27;7.45;;;5.50;99.90;;;;;;5042751;28;20111;-39
2022/12/19 06:50:58;;;;;;;10.68;8.70;;;5.50;99.90;;;;;;5041858;28;20203;-38
2022/12/19 06:53:24;;;;;;;10.77;9.05;;;5.50;99.90;;;;;;5041397;28;20754;-39
2022/12/19 06:55:52;;;;;;;12.13;9.07;;;5.60;99.90;;;;;;5042213;28;20097;-40
2022/12/19 06:58:18;;;;;;;11.20;8.68;;;5.60;99.90;;;;;;5041456;28;20116;-39
2022/12/19 07:00:43;;;;;;;9.65;7.70;;;5.60;99.90;;;;;;5042170;28;20617;-39
2022/12/19 07:03:13;;;;;;;10.55;8.65;;;5.60;99.90;;;;;;5041967;28;20083;-40
2022/12/19 07:05:39;;;;;;;10.65;7.72;;;5.70;99.90;;;;;;5042376;28;20033;-41
2022/12/19 07:08:06;;;;;;;10.00;7.22;;;5.70;99.90;;;;;;5041439;28;20033;-39
2022/12/19 07:10:32;;;;;;;8.55;7.07;;;5.70;99.90;;;;;;5042211;28;20748;-39
2022/12/19 07:12:58;;;;;;;9.35;7.07;;;5.80;99.90;;;;;;5041904;28;20044;-39
2022/12/19 07:15:24;;;;;;;8.48;7.13;;;5.90;99.90;;;;;;5041608;28;20048;-40
2022/12/19 07:17:49;;;;;;;8.75;6.60;;;5.90;99.90;;;;;;5040657;28;20144;-40
2022/12/19 07:20:16;;;;;;;7.88;6.57;;;6.00;99.90;;;;;;5040953;28;20032;-40
2022/12/19 07:22:43;;;;;;;7.28;5.70;;;6.00;99.90;;;;;;5040663;28;20072;-40
2022/12/19 07:25:09;;;;;;;7.43;5.97;;;6.10;99.90;;;;;;5040469;28;20028;-38
2022/12/19 07:27:35;;;;;;;7.10;5.40;;;6.10;99.90;;;;;;5041101;28;20033;-39
2022/12/19 07:30:01;;;;;;;6.60;5.32;;;6.20;99.90;;;;;;5041158;28;20024;-39
2022/12/19 07:32:26;;;;;;;7.45;6.20;;;6.20;99.90;;;;;;5042638;28;20060;-39
2022/12/19 07:34:55;;;;;;;7.15;5.68;;;6.30;99.90;;;;;;5041890;28;20094;-40
2022/12/19 07:37:20;;;;;;;6.72;5.28;;;6.30;99.90;;;;;;5041310;28;20671;-40
2022/12/19 07:39:47;;;;;;;6.95;5.50;;;6.40;99.90;;;;;;5041570;28;20067;-40
2022/12/19 07:42:12;;;;;;;6.93;6.18;;;6.40;99.90;;;;;;5040967;28;20123;-38
2022/12/19 07:44:39;;;;;;;5.50;4.88;;;6.40;99.90;;;;;;5041296;28;20045;-40
2022/12/19 07:47:08;;;;;;;5.88;4.95;;;6.40;99.90;;;;;;5041754;28;20033;-40
2022/12/19 07:49:33;;;;;;;5.93;4.80;;;6.40;99.90;;;;;;5040571;28;20103;-40
2022/12/19 07:51:59;;;;;;;6.95;5.68;;;6.40;99.90;;;;;;5050892;28;20817;-40
2022/12/19 07:54:24;;;;;;;5.65;4.70;;;6.50;99.90;;;;;;5056098;28;20487;-40
2022/12/19 07:56:50;;;;;;;5.57;4.65;;;6.60;99.90;;;;;;5040900;28;20852;-39
2022/12/19 07:59:15;;;;;;;7.43;4.80;;;6.60;99.90;;;;;;5040730;28;20107;-39
2022/12/19 08:01:41;;;;;;;5.00;4.47;;;6.60;99.90;;;;;;5041756;28;20132;-39
2022/12/19 08:04:07;;;;;;;6.10;5.20;;;6.70;99.90;;;;;;5040840;28;20029;-39
2022/12/19 08:06:32;;;;;;;6.57;4.97;;;6.70;99.90;;;;;;5041463;28;20067;-40
2022/12/19 08:08:58;;;;;;;5.65;4.60;;;6.80;99.90;;;;;;5041820;28;20052;-39
2022/12/19 08:11:28;;;;;;;5.10;4.32;;;6.80;99.90;;;;;;5040881;28;20037;-39
2022/12/19 08:13:54;;;;;;;7.45;4.75;;;6.80;99.90;;;;;;5041368;28;20056;-39
2022/12/19 08:16:21;;;;;;;6.88;4.53;;;6.90;99.90;;;;;;5041299;28;20417;-40
2022/12/19 08:18:46;;;;;;;5.55;4.78;;;7.00;99.90;;;;;;5041299;28;20756;-41
2022/12/19 08:21:12;;;;;;;6.47;5.13;;;7.00;99.90;;;;;;5041793;28;20120;-41
2022/12/19 08:23:41;;;;;;;4.88;4.20;;;7.00;99.90;;;;;;5041738;28;20413;-37
2022/12/19 08:26:10;;;;;;;7.00;5.60;;;7.10;99.90;;;;;;5041373;28;20058;-38
2022/12/19 08:28:36;;;;;;;7.82;5.63;;;7.10;99.90;;;;;;5041788;28;20033;-39
2022/12/19 08:31:14;;;;;;;5.85;4.90;;;7.20;99.90;;;;;;5041129;28;20047;-40
2022/12/19 08:33:40;;;;;;;7.85;6.13;;;7.20;99.90;;;;;;5041315;28;20177;-38
2022/12/19 08:36:10;;;;;;;6.53;5.82;;;7.30;99.90;;;;;;5041020;28;20667;-38
2022/12/19 08:38:38;;;;;;;5.93;5.05;;;7.30;99.90;;;;;;5041422;28;20036;-40
2022/12/19 08:41:04;;;;;;;6.55;5.68;;;7.40;99.90;;;;;;5040749;28;20024;-37
2022/12/19 08:43:30;;;;;;;5.97;4.95;;;7.40;99.90;;;;;;5041403;28;20028;-38
2022/12/19 08:45:55;;;;;;;5.93;4.85;;;7.40;99.90;;;;;;5040347;28;20028;-39
2022/12/19 08:48:22;;;;;;;5.88;5.18;;;7.40;99.90;;;;;;5040794;28;20033;-37
2022/12/19 08:51:20;;;;;;;5.18;4.40;;;7.40;99.90;;;;;;5040353;28;20135;-39
2022/12/19 08:53:46;;;;;;;5.25;4.75;;;7.40;99.90;;;;;;5028222;28;20088;-40
2022/12/19 08:56:17;;;;;;;5.63;4.30;;;7.40;99.90;;;;;;5041098;28;20229;-40
2022/12/19 08:58:44;;;;;;;6.80;5.10;;;7.50;99.90;;;;;;5040492;28;20025;-40
2022/12/19 09:01:17;;;;;;;6.55;4.53;;;7.50;99.90;;;;;;5040150;28;20175;-40
2022/12/19 09:03:43;;;;;;;6.28;5.30;;;7.50;99.90;;;;;;5040923;28;20441;-38
2022/12/19 09:06:11;;;;;;;7.70;5.55;;;7.50;99.90;;;;;;5040138;28;20028;-39
2022/12/19 09:08:37;;;;;;;5.63;4.88;;;7.50;99.90;;;;;;5039387;28;20579;-42
2022/12/19 09:11:09;;;;;;;6.15;5.07;;;7.50;99.90;;;;;;5040621;28;20116;-41
2022/12/19 09:13:36;;;;;;;6.10;4.40;;;7.60;99.90;;;;;;5039226;28;20749;-41
2022/12/19 09:16:12;;;;;;;5.28;4.28;;;7.60;99.90;;;;;;5040285;28;20035;-41
2022/12/19 09:18:38;;;;;;;4.82;3.70;;;7.60;99.90;;;;;;5040859;28;20037;-40
2022/12/19 09:21:05;;;;;;;4.40;3.90;;;7.60;99.90;;;;;;5040038;28;20857;-40
2022/12/19 09:23:30;;;;;;;5.60;4.45;;;7.60;99.90;;;;;;5041227;28;20764;-39
2022/12/19 09:26:04;;;;;;;6.10;4.78;;;7.60;99.90;;;;;;5040853;28;20036;-39
2022/12/19 09:28:29;;;;;;;6.35;4.68;;;7.60;99.90;;;;;;5038535;28;20148;-40
2022/12/19 09:31:02;;;;;;;4.80;4.30;;;7.60;99.90;;;;;;5040381;28;20143;-39
2022/12/19 09:33:30;;;;;;;4.93;4.30;;;7.60;99.90;;;;;;5040058;28;20491;-39
2022/12/19 09:35:55;;;;;;;4.43;3.92;;;7.60;99.90;;;;;;5039192;28;20435;-39
2022/12/19 09:38:24;;;;;;;5.45;4.07;;;7.60;99.90;;;;;;5039713;28;20029;-40
2022/12/19 09:41:30;;;;;;;4.43;3.90;;;7.70;99.90;;;;;;5039971;28;20514;-40
2022/12/19 09:44:22;;;;;;;4.43;3.55;;;7.60;99.90;;;;;;5043161;28;20025;-40
2022/12/19 09:46:51;;;;;;;5.40;4.28;;;7.70;99.90;;;;;;5024062;28;20029;-38
2022/12/19 09:49:21;;;;;;;5.30;4.13;;;7.70;99.90;;;;;;5036690;28;20354;-41
2022/12/19 09:51:53;;;;;;;4.95;3.80;;;7.70;99.90;;;;;;5044279;28;20029;-39
2022/12/19 09:54:22;;;;;;;5.53;5.03;;;7.70;99.90;;;;;;5044487;28;20040;-40
2022/12/19 09:56:52;;;;;;;4.82;4.13;;;7.70;99.90;;;;;;5043488;28;20021;-39
2022/12/19 09:59:31;;;;;;;5.43;4.18;;;7.70;99.90;;;;;;5044383;28;20029;-40
2022/12/19 10:02:03;;;;;;;5.00;4.50;;;7.80;99.90;;;;;;5043282;28;20032;-40
2022/12/19 10:04:33;;;;;;;4.85;4.35;;;7.80;99.90;;;;;;5043446;28;20029;-40
2022/12/19 10:06:58;;;;;;;7.15;4.43;;;7.80;99.90;;;;;;5044652;28;20029;-40
2022/12/19 10:09:31;;;;;;;5.85;4.30;;;7.80;99.90;;;;;;5043759;28;20551;-39
2022/12/19 10:12:17;;;;;;;5.47;4.28;;;7.80;99.90;;;;;;5044098;28;20025;-38
2022/12/19 10:14:52;;;;;;;5.07;3.83;;;7.80;99.90;;;;;;5043819;28;20127;-40
2022/12/19 10:17:36;;;;;;;5.78;4.20;;;7.90;99.90;;;;;;5042853;28;20115;-39
2022/12/19 10:20:25;;;;;;;5.57;4.60;;;7.90;99.90;;;;;;5043094;28;20025;-39
2022/12/19 10:23:16;;;;;;;4.50;3.97;;;7.90;99.90;;;;;;5043396;28;20037;-41
2022/12/19 10:25:51;;;;;;;7.30;4.28;;;7.90;99.90;;;;;;5042197;28;20159;-40
2022/12/19 10:28:25;;;;;;;4.38;3.97;;;7.90;99.90;;;;;;5023931;28;20033;-40
2022/12/19 10:31:00;;;;;;;4.72;4.22;;;7.90;99.90;;;;;;5038801;28;20036;-41
2022/12/19 10:33:38;;;;;;;6.65;5.22;;;8.00;99.90;;;;;;5024707;28;20416;-40
2022/12/19 10:36:09;;;;;;;8.43;5.47;;;8.00;99.90;;;;;;5039914;28;20487;-39
2022/12/19 10:38:46;;;;;;;6.20;4.63;;;8.00;99.90;;;;;;5043401;28;20037;-39
2022/12/19 10:41:17;;;;;;;7.03;5.40;;;8.00;99.90;;;;;;5042229;28;20059;-38
2022/12/19 10:44:01;;;;;;;6.05;5.13;;;8.00;99.90;;;;;;5029697;28;20112;-40
2022/12/19 10:46:48;;;;;;;6.35;4.82;;;8.10;99.90;;;;;;5042650;28;20029;-39
2022/12/19 10:49:16;;;;;;;4.80;3.97;;;8.10;99.90;;;;;;5043288;28;20028;-39
2022/12/19 10:51:55;;;;;;;5.50;4.35;;;8.10;99.90;;;;;;5041772;28;20033;-41
2022/12/19 10:54:25;;;;;;;4.30;3.90;;;8.10;99.90;;;;;;5043849;28;20033;-39
2022/12/19 10:56:50;;;;;;;4.45;4.05;;;8.20;99.90;;;;;;5042923;28;20037;-41
2022/12/19 10:59:18;;;;;;;4.45;3.55;;;8.20;99.90;;;;;;5042703;28;20036;-40
2022/12/19 11:01:45;;;;;;;4.93;4.35;;;8.30;99.90;;;;;;5042864;28;20041;-39
2022/12/19 11:04:25;;;;;;;4.32;3.45;;;8.30;99.90;;;;;;5043200;28;20108;-40
2022/12/19 11:07:02;;;;;;;4.95;3.53;;;8.30;99.90;;;;;;5042198;28;20029;-39
2022/12/19 11:09:37;;;;;;;4.28;3.60;;;8.30;99.90;;;;;;5042961;28;20025;-39
2022/12/19 11:12:06;;;;;;;3.80;3.13;;;8.30;99.90;;;;;;5045402;28;20104;-40
2022/12/19 11:14:33;;;;;;;4.53;4.10;;;8.40;99.90;;;;;;5044236;28;20025;-39
2022/12/19 11:16:58;;;;;;;5.90;4.43;;;8.40;99.90;;;;;;5041783;28;20032;-38
2022/12/19 11:19:34;;;;;;;4.13;3.72;;;8.40;99.90;;;;;;5042862;28;20029;-36
2022/12/19 11:22:22;;;;;;;4.28;3.72;;;8.40;99.90;;;;;;5041733;28;20116;-39
2022/12/19 11:24:55;;;;;;;6.30;4.25;;;8.40;99.90;;;;;;5041908;28;20041;-41
2022/12/19 11:27:40;;;;;;;4.35;3.95;;;8.40;99.90;;;;;;5041435;28;20116;-39
2022/12/19 11:30:18;;;;;;;4.00;3.60;;;8.40;99.90;;;;;;5042319;28;20063;-37
2022/12/19 11:32:46;;;;;;;4.63;4.03;;;8.40;99.90;;;;;;5041440;28;20523;-40
2022/12/19 11:35:25;;;;;;;4.82;4.18;;;8.40;99.90;;;;;;5041465;28;20063;-39
2022/12/19 11:37:57;;;;;;;5.55;4.25;;;8.50;99.90;;;;;;5042925;28;20124;-41
2022/12/19 11:40:29;;;;;;;4.95;4.00;;;8.50;99.90;;;;;;5042618;28;20025;-41
2022/12/19 11:43:12;;;;;;;5.13;4.18;;;8.50;99.90;;;;;;5041129;28;20154;-40
2022/12/19 11:45:43;;;;;;;;;;;8.50;99.90;;;;;;5042696;28;20094;-39
2022/12/19 11:48:27;;;;;;;4.50;3.83;;;8.60;99.90;;;;;;5041290;28;19970;-39
2022/12/19 11:51:16;;;;;;;4.57;3.80;;;8.50;99.90;;;;;;5022093;28;20167;-41
2022/12/19 11:53:51;;;;;;;4.25;3.60;;;8.60;99.90;;;;;;5039009;28;20029;-40
2022/12/19 11:56:22;;;;;;;4.13;3.72;;;8.60;99.90;;;;;;5041956;28;20476;-39
2022/12/19 11:58:54;;;;;;;5.30;3.70;;;8.70;99.90;;;;;;5041740;28;20033;-41
2022/12/19 12:01:38;;;;;;;3.70;3.40;;;8.70;99.90;;;;;;5021981;28;20095;-41
2022/12/19 12:04:22;;;;;;;4.90;3.60;;;8.70;99.90;;;;;;5037702;28;20040;-39
2022/12/19 12:06:52;;;;;;;8.30;3.88;;;8.70;99.90;;;;;;5040828;28;20472;-41
2022/12/19 12:09:29;;;;;;;4.40;4.00;;;8.80;99.90;;;;;;5040929;28;20025;-39
2022/12/19 12:12:10;;;;;;;4.28;3.75;;;8.80;99.90;;;;;;5041793;28;20166;-40
2022/12/19 12:15:06;;;;;;;4.53;3.80;;;8.90;99.90;;;;;;5041337;28;20132;-37
2022/12/19 12:17:46;;;;;;;4.38;3.40;;;8.90;99.90;;;;;;5039895;28;20107;-41
2022/12/19 12:20:24;;;;;;;5.78;3.90;;;8.90;99.90;;;;;;5037418;28;20024;-41
2022/12/19 12:23:05;;;;;;;5.22;4.28;;;8.90;99.90;;;;;;5041656;28;20443;-40
2022/12/19 12:25:42;;;;;;;5.15;4.50;;;9.00;99.90;;;;;;5040053;28;20029;-39
2022/12/19 12:28:39;;;;;;;4.93;4.10;;;9.00;99.90;;;;;;5041580;28;20788;-40
2022/12/19 12:31:36;;;;;;;4.72;3.85;;;9.00;99.90;;;;;;5030642;28;20033;-40
2022/12/19 12:34:33;;;;;;;6.03;4.47;;;9.00;99.90;;;;;;5041354;28;20053;-40
2022/12/19 12:37:23;;;;;;;4.78;3.97;;;9.00;99.90;;;;;;5041557;28;20044;-40
2022/12/19 12:40:05;;;;;;;4.00;3.53;;;9.10;99.90;;;;;;5041724;28;20025;-36
2022/12/19 12:43:12;;;;;;;4.80;3.58;;;9.10;99.90;;;;;;5041757;28;20117;-39
2022/12/19 12:45:40;;;;;;;4.20;3.80;;;9.20;99.90;;;;;;5039788;28;20032;-40
2022/12/19 12:48:26;;;;;;;5.15;3.90;;;9.20;99.90;;;;;;5041651;28;20033;-40
2022/12/19 12:50:54;;;;;;;4.85;3.90;;;9.20;99.90;;;;;;5041186;28;20590;-39
2022/12/19 12:53:30;;;;;;;5.20;4.00;;;9.20;99.90;;;;;;5040330;28;20025;-39
2022/12/19 12:55:57;;;;;;;5.03;4.00;;;9.20;99.90;;;;;;5040402;28;20029;-40
2022/12/19 12:58:48;;;;;;;5.35;3.75;;;9.30;99.90;;;;;;5040853;28;20051;-38
2022/12/19 13:01:23;;;;;;;4.32;3.75;;;9.30;99.90;;;;;;5040114;28;20040;-41
2022/12/19 13:04:02;;;;;;;5.68;3.70;;;9.30;99.90;;;;;;5041106;28;20033;-40
2022/12/19 13:06:40;;;;;;;5.32;3.90;;;9.40;99.90;;;;;;5040304;28;20024;-39
2022/12/19 13:09:08;;;;;;;4.95;3.92;;;9.40;99.90;;;;;;5041049;28;20552;-44
2022/12/19 13:14:50;;;;;;;3.55;3.22;;;9.50;99.90;;;;;;5040149;28;20085;-39
2022/12/19 13:17:47;;;;;;;4.35;3.75;;;9.50;99.90;;;;;;5039286;28;20025;-40
2022/12/19 13:20:13;;;;;;;3.60;3.17;;;9.60;99.90;;;;;;5039715;28;20032;-40